Time;durP1;ratioP1;P1;durP2;ratioP2;P2;SDS_P1;SDS_P2;PMS_P1;PMS_P2;Temp;Humidity;BMP_temperature;BMP_pressure;BME280_temperature;BME280_humidity;BME280_pressure;Samples;Min_cycle;Max_cycle;Signal;HPM_P1;HPM_P2
2021/06/17 00:00:11;;;;;;;2.80;2.60;;;;;25.60;100012.00;;;;2078557;28;20263;-58
2021/06/17 00:01:12;;;;;;;3.55;3.35;;;;;25.60;100007.00;;;;2076465;28;20213;-58
2021/06/17 00:02:12;;;;;;;2.83;2.63;;;;;25.60;100006.00;;;;2077192;28;20220;-58
2021/06/17 00:03:13;;;;;;;3.57;3.37;;;;;25.60;100005.00;;;;2072440;28;20624;-58
2021/06/17 00:04:13;;;;;;;2.90;2.70;;;;;25.60;100010.00;;;;2067565;28;20210;-58
2021/06/17 00:05:15;;;;;;;3.20;3.00;;;;;25.60;100004.00;;;;2070595;28;20218;-58
2021/06/17 00:06:15;;;;;;;2.80;2.60;;;;;25.60;100003.00;;;;2070660;28;20221;-59
2021/06/17 00:07:16;;;;;;;3.07;2.87;;;;;25.60;100004.00;;;;2070726;28;20293;-59
2021/06/17 00:08:16;;;;;;;3.10;2.90;;;;;25.60;100008.00;;;;2068933;28;20218;-59
2021/06/17 00:09:16;;;;;;;3.40;3.20;;;;;25.60;100001.00;;;;2070633;28;20218;-59
2021/06/17 00:10:26;;;;;;;2.90;2.70;;;;;25.60;100003.00;;;;2070476;28;20555;-58
2021/06/17 00:11:26;;;;;;;3.00;2.80;;;;;25.60;100007.00;;;;2070508;28;20726;-59
2021/06/17 00:12:26;;;;;;;2.90;2.70;;;;;25.60;99997.00;;;;2070647;28;20222;-59
2021/06/17 00:13:28;;;;;;;2.60;2.40;;;;;25.60;99999.00;;;;2070982;28;20207;-58
2021/06/17 00:14:29;;;;;;;2.60;2.40;;;;;25.60;100006.00;;;;2070511;28;20699;-59
2021/06/17 00:15:29;;;;;;;2.80;2.67;;;;;25.60;100002.00;;;;2070744;28;20453;-59
2021/06/17 00:16:29;;;;;;;3.13;2.93;;;;;25.60;100008.00;;;;2070373;28;20210;-58
2021/06/17 00:17:30;;;;;;;3.00;2.80;;;;;25.60;99999.00;;;;2070675;28;20222;-59
2021/06/17 00:18:30;;;;;;;3.37;3.17;;;;;25.60;100003.00;;;;2070869;28;20218;-59
2021/06/17 00:19:31;;;;;;;3.53;3.33;;;;;25.60;99999.00;;;;2068325;28;20301;-58
2021/06/17 00:20:31;;;;;;;3.00;2.80;;;;;25.60;99989.00;;;;2069721;28;20214;-59
2021/06/17 00:21:31;;;;;;;3.60;3.40;;;;;25.60;99995.00;;;;2069413;28;20316;-58
2021/06/17 00:22:32;;;;;;;2.60;2.50;;;;;25.60;99995.00;;;;2070776;28;20222;-57
2021/06/17 00:23:32;;;;;;;2.90;2.70;;;;;25.60;99999.00;;;;2070461;28;20269;-57
2021/06/17 00:24:33;;;;;;;3.40;3.20;;;;;25.60;99999.00;;;;2070548;28;20230;-59
2021/06/17 00:25:33;;;;;;;3.27;3.00;;;;;25.60;100000.00;;;;2070586;28;20230;-58
2021/06/17 00:26:34;;;;;;;3.30;3.10;;;;;25.60;99996.00;;;;2069584;28;20653;-58
2021/06/17 00:27:34;;;;;;;3.20;2.90;;;;;25.60;100009.00;;;;2071060;28;20305;-58
2021/06/17 00:28:34;;;;;;;3.27;3.07;;;;;25.60;100000.00;;;;2071226;28;20676;-59
2021/06/17 00:29:35;;;;;;;3.20;3.00;;;;;25.60;99994.00;;;;2070888;28;20660;-58
2021/06/17 00:30:35;;;;;;;3.00;2.80;;;;;25.60;99997.00;;;;2070820;28;20690;-58
2021/06/17 00:31:36;;;;;;;3.53;3.33;;;;;25.60;99996.00;;;;2073784;28;20218;-58
2021/06/17 00:32:36;;;;;;;2.80;2.70;;;;;25.60;99996.00;;;;2075413;28;20345;-58
2021/06/17 00:33:36;;;;;;;3.20;3.00;;;;;25.60;99991.00;;;;2074772;28;20221;-59
2021/06/17 00:34:37;;;;;;;3.60;3.40;;;;;25.60;99992.00;;;;2073634;28;20573;-58
2021/06/17 00:35:37;;;;;;;3.93;3.73;;;;;25.60;100011.00;;;;2070234;28;20660;-59
2021/06/17 00:36:38;;;;;;;3.50;3.30;;;;;25.60;99988.00;;;;2069493;28;20222;-59
2021/06/17 00:37:38;;;;;;;2.87;2.67;;;;;25.60;99999.00;;;;2071328;28;20229;-58
2021/06/17 00:38:39;;;;;;;3.33;3.13;;;;;25.60;99992.00;;;;2071101;28;20222;-59
2021/06/17 00:39:40;;;;;;;3.37;3.17;;;;;25.60;99992.00;;;;2071028;28;20364;-58
2021/06/17 00:40:41;;;;;;;3.17;2.97;;;;;25.60;99993.00;;;;2070922;28;20297;-59
2021/06/17 00:41:41;;;;;;;3.33;3.13;;;;;25.60;99989.00;;;;2069708;28;20449;-58
2021/06/17 00:42:45;;;;;;;2.80;2.60;;;;;25.60;99990.00;;;;2070883;28;20245;-58
2021/06/17 00:43:45;;;;;;;3.10;2.90;;;;;25.60;99993.00;;;;2071042;28;20253;-59
2021/06/17 00:44:45;;;;;;;3.37;3.17;;;;;25.60;99988.00;;;;2070988;28;20265;-58
2021/06/17 00:45:46;;;;;;;3.27;3.07;;;;;25.60;99997.00;;;;2070691;28;20679;-59
2021/06/17 00:46:46;;;;;;;3.47;3.27;;;;;25.60;99994.00;;;;2070666;28;20691;-61
2021/06/17 00:47:47;;;;;;;2.80;2.70;;;;;25.60;99995.00;;;;2070848;28;20215;-59
2021/06/17 00:48:47;;;;;;;3.30;3.10;;;;;25.60;100003.00;;;;2070956;28;20556;-59
2021/06/17 00:49:47;;;;;;;3.13;2.93;;;;;25.40;99984.00;;;;2070509;28;20221;-59
2021/06/17 00:50:53;;;;;;;3.10;2.90;;;;;25.60;99992.00;;;;2077684;28;21061;-58
2021/06/17 00:51:53;;;;;;;3.37;3.17;;;;;25.60;99991.00;;;;2076797;28;20220;-59
2021/06/17 00:52:54;;;;;;;3.57;3.37;;;;;25.60;99997.00;;;;2069881;28;20453;-59
2021/06/17 00:53:54;;;;;;;3.27;3.07;;;;;25.60;99991.00;;;;2070681;28;20260;-59
2021/06/17 00:54:57;;;;;;;3.20;3.00;;;;;25.60;99987.00;;;;2069435;28;20210;-58
2021/06/17 00:55:58;;;;;;;3.85;3.60;;;;;25.60;99990.00;;;;2069472;28;20328;-59
2021/06/17 00:57:06;;;;;;;3.40;3.20;;;;;25.60;99995.00;;;;2070352;28;20969;-59
2021/06/17 00:58:06;;;;;;;3.00;2.60;;;;;25.60;99987.00;;;;2069973;28;20600;-58
2021/06/17 00:59:06;;;;;;;3.30;3.10;;;;;25.60;99987.00;;;;2069594;28;20301;-58
2021/06/17 01:00:09;;;;;;;3.37;3.17;;;;;25.60;99988.00;;;;2069454;28;20223;-58
2021/06/17 01:01:09;;;;;;;3.40;3.20;;;;;25.60;99989.00;;;;2069191;28;20739;-59
2021/06/17 01:02:10;;;;;;;3.03;2.83;;;;;25.60;99989.00;;;;2076642;28;20209;-59
2021/06/17 01:03:10;;;;;;;3.20;3.00;;;;;25.60;99986.00;;;;2073334;28;20710;-59
2021/06/17 01:04:10;;;;;;;2.93;2.73;;;;;25.60;99983.00;;;;2072747;28;20730;-59
2021/06/17 01:05:13;;;;;;;3.60;3.40;;;;;25.60;99985.00;;;;2071410;28;20272;-58
2021/06/17 01:06:13;;;;;;;3.17;2.97;;;;;25.60;99987.00;;;;2070873;28;20582;-58
2021/06/17 01:07:20;;;;;;;3.20;3.00;;;;;25.60;99975.00;;;;2070580;28;20218;-59
2021/06/17 01:08:39;;;;;;;3.33;3.13;;;;;25.60;99974.00;;;;2069392;28;20237;-58
2021/06/17 01:10:03;;;;;;;3.38;3.08;;;;;25.60;99971.00;;;;2070283;28;20651;-58
2021/06/17 01:11:27;;;;;;;3.70;3.50;;;;;25.60;99969.00;;;;2069333;28;20381;-58
2021/06/17 01:12:31;;;;;;;3.58;3.38;;;;;25.60;99962.00;;;;2070081;28;20229;-58
2021/06/17 01:13:53;;;;;;;3.30;3.10;;;;;25.60;99968.00;;;;2070299;28;20299;-58
2021/06/17 01:15:05;;;;;;;3.40;3.20;;;;;25.60;99972.00;;;;2070411;28;20210;-58
2021/06/17 01:16:32;;;;;;;3.50;3.30;;;;;25.60;99968.00;;;;2070088;28;20765;-58
2021/06/17 01:17:34;;;;;;;3.38;3.17;;;;;25.60;99961.00;;;;2070210;28;20218;-58
2021/06/17 01:18:35;;;;;;;3.28;3.08;;;;;25.60;99963.00;;;;2069312;28;20596;-58
2021/06/17 01:20:07;;;;;;;2.97;2.78;;;;;25.60;99959.00;;;;2069911;28;20305;-58
2021/06/17 01:21:11;;;;;;;3.58;3.38;;;;;25.60;99962.00;;;;2077675;28;20385;-59
2021/06/17 01:22:14;;;;;;;3.35;3.15;;;;;25.60;99956.00;;;;2077913;28;20229;-58
2021/06/17 01:24:01;;;;;;;3.63;3.40;;;;;25.60;99958.00;;;;2070210;28;20295;-58
2021/06/17 01:25:14;;;;;;;3.75;3.55;;;;;25.60;99955.00;;;;2061777;28;20219;-58
2021/06/17 01:26:32;;;;;;;3.30;3.00;;;;;25.60;99953.00;;;;2066896;28;20810;-59
2021/06/17 01:28:04;;;;;;;3.60;3.40;;;;;25.60;99957.00;;;;2070768;28;20217;-58
2021/06/17 01:29:04;;;;;;;3.40;3.20;;;;;25.60;99961.00;;;;2069718;28;20207;-59
2021/06/17 01:30:10;;;;;;;3.90;3.60;;;;;25.60;99957.00;;;;2069512;28;20301;-58
2021/06/17 01:31:12;;;;;;;3.50;3.30;;;;;25.60;99965.00;;;;2069311;28;20223;-59
2021/06/17 01:32:12;;;;;;;3.85;3.65;;;;;25.60;99962.00;;;;2085681;28;20593;-58
2021/06/17 01:33:13;;;;;;;3.50;3.30;;;;;25.60;99957.00;;;;2070465;28;20230;-58
2021/06/17 01:34:13;;;;;;;3.50;3.30;;;;;25.60;99951.00;;;;2070164;28;20221;-58
2021/06/17 01:35:15;;;;;;;3.63;3.37;;;;;25.60;99957.00;;;;2078293;28;20535;-58
2021/06/17 01:36:18;;;;;;;3.50;3.30;;;;;25.60;99959.00;;;;2078123;28;20229;-58
2021/06/17 01:37:21;;;;;;;3.58;3.38;;;;;25.60;99956.00;;;;2070899;28;20222;-59
2021/06/17 01:38:22;;;;;;;3.30;3.10;;;;;25.60;99954.00;;;;2070122;28;20627;-58
2021/06/17 01:39:23;;;;;;;4.00;3.70;;;;;25.60;99951.00;;;;2069877;28;20218;-59
2021/06/17 01:40:25;;;;;;;3.80;3.60;;;;;25.60;99955.00;;;;2069879;28;20298;-58
2021/06/17 01:41:27;;;;;;;3.58;3.38;;;;;25.60;99950.00;;;;2069213;28;20233;-60
2021/06/17 01:42:28;;;;;;;3.85;3.55;;;;;25.60;99954.00;;;;2070050;28;20220;-59
2021/06/17 01:43:28;;;;;;;3.57;3.37;;;;;25.60;99951.00;;;;2069918;28;20245;-58
2021/06/17 01:44:28;;;;;;;3.80;3.60;;;;;25.60;99951.00;;;;2070059;28;20214;-59
2021/06/17 01:45:29;;;;;;;3.60;3.40;;;;;25.60;99961.00;;;;2070047;28;20699;-59
2021/06/17 01:46:29;;;;;;;3.50;3.30;;;;;25.60;99958.00;;;;2070012;28;20568;-59
2021/06/17 01:47:30;;;;;;;3.70;3.50;;;;;25.60;99961.00;;;;2069825;28;20227;-59
2021/06/17 01:48:30;;;;;;;3.50;3.30;;;;;25.60;99960.00;;;;2069843;28;20214;-59
2021/06/17 01:49:30;;;;;;;3.50;3.30;;;;;25.60;99961.00;;;;2086196;28;20213;-58
2021/06/17 01:50:31;;;;;;;3.50;3.30;;;;;25.60;99968.00;;;;2078215;28;20217;-59
2021/06/17 01:51:31;;;;;;;3.60;3.40;;;;;25.50;99963.00;;;;2069504;28;20210;-59
2021/06/17 01:52:32;;;;;;;3.73;3.53;;;;;25.60;99966.00;;;;2070098;28;20217;-58
2021/06/17 01:53:32;;;;;;;3.70;3.50;;;;;25.60;99974.00;;;;2078938;28;20690;-58
2021/06/17 01:54:33;;;;;;;3.57;3.37;;;;;25.60;99967.00;;;;2087850;28;20940;-58
2021/06/17 01:55:35;;;;;;;3.60;3.40;;;;;25.60;99968.00;;;;2079544;28;20559;-59
2021/06/17 01:56:35;;;;;;;3.70;3.50;;;;;25.60;99962.00;;;;2071669;28;20280;-58
2021/06/17 01:57:35;;;;;;;3.60;3.40;;;;;25.60;99960.00;;;;2071567;28;20706;-58
2021/06/17 01:58:36;;;;;;;3.60;3.40;;;;;25.60;99963.00;;;;2071496;28;20226;-59
2021/06/17 01:59:36;;;;;;;4.03;3.80;;;;;25.60;99966.00;;;;2071418;28;20268;-59
2021/06/17 02:00:39;;;;;;;4.20;3.90;;;;;25.60;99966.00;;;;2079640;28;20694;-58
2021/06/17 02:01:39;;;;;;;3.50;3.30;;;;;25.60;99967.00;;;;2083363;28;20294;-59
2021/06/17 02:02:40;;;;;;;4.43;4.13;;;;;25.60;99958.00;;;;2078135;28;20577;-58
2021/06/17 02:03:43;;;;;;;3.70;3.40;;;;;25.60;99969.00;;;;2071191;28;20221;-59
2021/06/17 02:04:46;;;;;;;3.40;3.20;;;;;25.60;99967.00;;;;2071353;28;20265;-59
2021/06/17 02:05:47;;;;;;;4.20;3.90;;;;;25.50;99965.00;;;;2071522;28;20361;-59
2021/06/17 02:06:47;;;;;;;3.92;3.63;;;;;25.60;99962.00;;;;2071440;28;20222;-59
2021/06/17 02:07:48;;;;;;;3.50;3.30;;;;;25.60;99969.00;;;;2066573;28;20401;-58
2021/06/17 02:08:52;;;;;;;4.07;3.87;;;;;25.60;99973.00;;;;2077110;28;20217;-59
2021/06/17 02:09:53;;;;;;;3.70;3.50;;;;;25.60;99957.00;;;;2085716;28;20212;-58
2021/06/17 02:10:53;;;;;;;3.87;3.57;;;;;25.60;99963.00;;;;2079442;28;20302;-59
2021/06/17 02:11:53;;;;;;;3.57;3.37;;;;;25.60;99966.00;;;;2070807;28;20214;-59
2021/06/17 02:12:54;;;;;;;3.83;3.63;;;;;25.50;99957.00;;;;2071476;28;20243;-58
2021/06/17 02:13:54;;;;;;;4.30;4.03;;;;;25.50;99957.00;;;;2071596;28;20297;-59
2021/06/17 02:14:55;;;;;;;3.93;3.73;;;;;25.60;99959.00;;;;2063171;28;20219;-59
2021/06/17 02:15:56;;;;;;;3.50;3.30;;;;;25.60;99961.00;;;;2071525;28;20233;-58
2021/06/17 02:16:57;;;;;;;3.33;3.13;;;;;25.60;99958.00;;;;2071523;28;20220;-59
2021/06/17 02:17:58;;;;;;;3.93;3.63;;;;;25.60;99957.00;;;;2071165;28;20352;-59
2021/06/17 02:19:00;;;;;;;3.93;3.63;;;;;25.60;99957.00;;;;2071310;28;20449;-59
2021/06/17 02:20:00;;;;;;;3.78;3.58;;;;;25.50;99949.00;;;;2071206;28;20214;-60
2021/06/17 02:21:00;;;;;;;4.10;3.90;;;;;25.60;99953.00;;;;2070779;28;20260;-59
2021/06/17 02:22:01;;;;;;;3.93;3.63;;;;;25.50;99955.00;;;;2071427;28;20322;-58
2021/06/17 02:23:03;;;;;;;3.97;3.77;;;;;25.50;99952.00;;;;2071458;28;20214;-59
2021/06/17 02:24:04;;;;;;;3.70;3.50;;;;;25.50;99951.00;;;;2079465;28;20300;-59
2021/06/17 02:25:05;;;;;;;3.73;3.53;;;;;25.50;99945.00;;;;2078494;28;20433;-58
2021/06/17 02:26:05;;;;;;;4.33;4.03;;;;;25.50;99952.00;;;;2079536;28;20285;-58
2021/06/17 02:27:11;;;;;;;3.80;3.60;;;;;25.50;99950.00;;;;2079345;28;20450;-59
2021/06/17 02:28:14;;;;;;;3.55;3.35;;;;;25.60;99955.00;;;;2078802;28;20205;-58
2021/06/17 02:29:16;;;;;;;3.80;3.60;;;;;25.60;99951.00;;;;2071091;28;20218;-57
2021/06/17 02:30:17;;;;;;;4.20;3.90;;;;;25.60;99950.00;;;;2071349;28;20202;-59
2021/06/17 02:31:19;;;;;;;3.87;3.67;;;;;25.60;99951.00;;;;2070429;28;20751;-59
2021/06/17 02:32:20;;;;;;;4.00;3.70;;;;;25.50;99956.00;;;;2078538;28;20217;-59
2021/06/17 02:33:21;;;;;;;4.40;4.10;;;;;25.50;99951.00;;;;2068863;28;20264;-58
2021/06/17 02:34:23;;;;;;;3.73;3.53;;;;;25.50;99953.00;;;;2071306;28;20448;-59
2021/06/17 02:35:25;;;;;;;3.55;3.35;;;;;25.50;99953.00;;;;2079682;28;20219;-59
2021/06/17 02:36:26;;;;;;;4.03;3.80;;;;;25.50;99948.00;;;;2079535;28;20218;-57
2021/06/17 02:37:26;;;;;;;4.30;4.00;;;;;25.50;99945.00;;;;2079633;28;20209;-59
2021/06/17 02:38:31;;;;;;;3.60;3.40;;;;;25.60;99951.00;;;;2078836;28;20547;-58
2021/06/17 02:39:31;;;;;;;4.13;3.83;;;;;25.50;99954.00;;;;2071833;28;20222;-58
2021/06/17 02:40:33;;;;;;;3.60;3.40;;;;;25.50;99956.00;;;;2079517;28;20300;-59
2021/06/17 02:41:34;;;;;;;3.50;3.30;;;;;25.50;99941.00;;;;2086687;28;20221;-59
2021/06/17 02:42:34;;;;;;;4.03;3.77;;;;;25.50;99939.00;;;;2079517;28;20783;-59
2021/06/17 02:43:37;;;;;;;4.03;3.83;;;;;25.50;99948.00;;;;2079159;28;20314;-58
2021/06/17 02:44:37;;;;;;;4.10;3.70;;;;;25.50;99945.00;;;;2079620;28;20610;-58
2021/06/17 02:45:38;;;;;;;3.83;3.53;;;;;25.50;99930.00;;;;2079460;28;20221;-59
2021/06/17 02:46:38;;;;;;;3.90;3.60;;;;;25.50;99947.00;;;;2079212;28;20218;-58
2021/06/17 02:47:38;;;;;;;3.97;3.77;;;;;25.40;99943.00;;;;2079380;28;20225;-59
2021/06/17 02:48:39;;;;;;;3.80;3.60;;;;;25.50;99963.00;;;;2079537;28;20221;-59
2021/06/17 02:49:39;;;;;;;4.30;4.00;;;;;25.50;99946.00;;;;2079157;28;20213;-59
2021/06/17 02:50:40;;;;;;;3.70;3.50;;;;;25.50;99952.00;;;;2080127;28;20275;-58
2021/06/17 02:51:40;;;;;;;4.23;3.93;;;;;25.50;99946.00;;;;2073706;28;20548;-59
2021/06/17 02:52:41;;;;;;;3.73;3.53;;;;;25.50;99943.00;;;;2072023;28;20305;-58
2021/06/17 02:53:41;;;;;;;4.10;3.90;;;;;25.50;99951.00;;;;2072040;28;20352;-59
2021/06/17 02:54:41;;;;;;;4.00;3.77;;;;;25.50;99924.00;;;;2071621;28;20746;-58
2021/06/17 02:55:42;;;;;;;4.00;3.80;;;;;25.50;99944.00;;;;2071004;28;20690;-58
2021/06/17 02:57:09;;;;;;;3.90;3.70;;;;;25.50;99949.00;;;;2071186;28;20264;-58
2021/06/17 02:58:23;;;;;;;4.00;3.70;;;;;25.50;99949.00;;;;2070380;28;20212;-57
2021/06/17 02:59:55;;;;;;;3.85;3.65;;;;;25.50;99945.00;;;;2071209;28;20449;-58
2021/06/17 03:00:58;;;;;;;4.00;3.80;;;;;25.50;99952.00;;;;2069969;28;20225;-58
2021/06/17 03:02:12;;;;;;;3.90;3.70;;;;;25.50;99956.00;;;;2076553;28;20217;-59
2021/06/17 03:03:15;;;;;;;4.57;4.28;;;;;25.50;99958.00;;;;2077415;28;20267;-59
2021/06/17 03:04:23;;;;;;;4.00;3.80;;;;;25.50;99958.00;;;;2087963;28;20215;-58
2021/06/17 03:05:27;;;;;;;3.80;3.60;;;;;25.50;99951.00;;;;2070852;28;20221;-59
2021/06/17 03:06:29;;;;;;;4.80;4.50;;;;;25.50;99961.00;;;;2070413;28;20218;-59
2021/06/17 03:07:32;;;;;;;4.10;3.90;;;;;25.50;99960.00;;;;2071304;28;20214;-58
2021/06/17 03:08:40;;;;;;;4.27;4.00;;;;;25.50;99959.00;;;;2071133;28;20269;-58
2021/06/17 03:09:47;;;;;;;4.32;4.03;;;;;25.50;99962.00;;;;2070764;28;20453;-59
2021/06/17 03:10:51;;;;;;;4.15;3.92;;;;;25.50;99954.00;;;;2071159;28;20214;-59
2021/06/17 03:11:53;;;;;;;3.75;3.55;;;;;25.50;99958.00;;;;2070179;28;20255;-59
2021/06/17 03:12:53;;;;;;;4.45;4.15;;;;;25.50;99958.00;;;;2071165;28;20241;-58
2021/06/17 03:13:57;;;;;;;4.77;4.47;;;;;25.50;99952.00;;;;2071359;28;20206;-58
2021/06/17 03:15:00;;;;;;;3.75;3.55;;;;;25.50;99957.00;;;;2078936;28;20248;-58
2021/06/17 03:16:01;;;;;;;3.75;3.55;;;;;25.50;99960.00;;;;2071194;28;20329;-58
2021/06/17 03:17:01;;;;;;;4.30;3.83;;;;;25.50;99956.00;;;;2071234;28;20214;-59
2021/06/17 03:18:03;;;;;;;4.40;4.10;;;;;25.50;99955.00;;;;2075688;28;20580;-58
2021/06/17 03:19:03;;;;;;;3.80;3.60;;;;;25.50;99954.00;;;;2079300;28;20237;-59
2021/06/17 03:20:05;;;;;;;4.40;4.10;;;;;25.50;99952.00;;;;2078963;28;20281;-58
2021/06/17 03:21:05;;;;;;;4.22;3.85;;;;;25.50;99957.00;;;;2078403;28;20248;-59
2021/06/17 03:22:07;;;;;;;4.57;4.27;;;;;25.50;99951.00;;;;2079298;28;20213;-59
2021/06/17 03:23:12;;;;;;;3.88;3.58;;;;;25.50;99954.00;;;;2087368;28;20220;-58
2021/06/17 03:24:12;;;;;;;4.05;3.75;;;;;25.50;99952.00;;;;2086664;28;20685;-58
2021/06/17 03:25:14;;;;;;;3.90;3.70;;;;;25.50;99957.00;;;;2078840;28;20336;-58
2021/06/17 03:26:15;;;;;;;3.90;3.70;;;;;25.50;99943.00;;;;2087459;28;20217;-58
2021/06/17 03:27:15;;;;;;;3.33;3.13;;;;;25.50;99945.00;;;;2087299;28;20212;-58
2021/06/17 03:28:15;;;;;;;3.77;3.57;;;;;25.50;99947.00;;;;2079262;28;20209;-58
2021/06/17 03:29:17;;;;;;;4.00;3.80;;;;;25.50;99952.00;;;;2070860;28;20695;-59
2021/06/17 03:30:20;;;;;;;3.83;3.63;;;;;25.50;99952.00;;;;2070926;28;20214;-59
2021/06/17 03:31:20;;;;;;;4.28;3.95;;;;;25.50;99952.00;;;;2076004;28;20296;-59
2021/06/17 03:32:21;;;;;;;3.67;3.47;;;;;25.50;99961.00;;;;2077536;28;20564;-59
2021/06/17 03:33:22;;;;;;;4.10;3.80;;;;;25.50;99945.00;;;;2065788;28;20207;-59
2021/06/17 03:34:22;;;;;;;4.25;3.95;;;;;25.50;99950.00;;;;2064987;28;20215;-59
2021/06/17 03:35:23;;;;;;;4.07;3.87;;;;;25.50;99951.00;;;;2070942;28;20301;-58
2021/06/17 03:36:23;;;;;;;4.30;4.00;;;;;25.50;99951.00;;;;2070772;28;20280;-58
2021/06/17 03:37:26;;;;;;;4.00;3.80;;;;;25.50;99956.00;;;;2071023;28;20211;-58
2021/06/17 03:38:26;;;;;;;4.22;3.92;;;;;25.50;99950.00;;;;2070917;28;20221;-59
2021/06/17 03:39:27;;;;;;;3.90;3.70;;;;;25.50;99949.00;;;;2070716;28;20671;-59
2021/06/17 03:40:27;;;;;;;4.30;4.00;;;;;25.50;99946.00;;;;2078947;28;20224;-59
2021/06/17 03:41:28;;;;;;;3.73;3.53;;;;;25.50;99958.00;;;;2086517;28;20214;-59
2021/06/17 03:42:28;;;;;;;4.63;4.23;;;;;25.50;99955.00;;;;2071599;28;20218;-59
2021/06/17 03:43:28;;;;;;;3.70;3.50;;;;;25.50;99957.00;;;;2070418;28;20273;-59
2021/06/17 03:44:29;;;;;;;4.47;4.17;;;;;25.50;99965.00;;;;2070751;28;20237;-58
2021/06/17 03:45:29;;;;;;;4.10;3.90;;;;;25.50;99966.00;;;;2070097;28;20334;-58
2021/06/17 03:46:30;;;;;;;3.90;3.70;;;;;25.50;99968.00;;;;2070733;28;20280;-59
2021/06/17 03:47:30;;;;;;;4.20;3.90;;;;;25.50;99974.00;;;;2086544;28;20308;-59
2021/06/17 03:48:30;;;;;;;3.87;3.67;;;;;25.50;99968.00;;;;2078977;28;20225;-60
2021/06/17 03:49:31;;;;;;;3.73;3.53;;;;;25.50;99972.00;;;;2070913;28;20215;-58
2021/06/17 03:50:31;;;;;;;4.03;3.83;;;;;25.50;99973.00;;;;2070763;28;20213;-58
2021/06/17 03:51:32;;;;;;;3.63;3.43;;;;;25.50;99969.00;;;;2061924;28;20588;-57
2021/06/17 03:52:32;;;;;;;4.07;3.77;;;;;25.50;99971.00;;;;2062662;28;20218;-58
2021/06/17 03:53:32;;;;;;;3.33;3.13;;;;;25.50;99974.00;;;;2070861;28;20296;-59
2021/06/17 03:54:33;;;;;;;4.00;3.80;;;;;25.50;99970.00;;;;2078785;28;20367;-59
2021/06/17 03:55:33;;;;;;;3.90;3.70;;;;;25.50;99974.00;;;;2070624;28;20250;-59
2021/06/17 03:56:34;;;;;;;3.97;3.67;;;;;25.50;99969.00;;;;2062186;28;20243;-58
2021/06/17 03:57:34;;;;;;;4.10;3.90;;;;;25.50;99972.00;;;;2069994;28;20882;-60
2021/06/17 03:58:35;;;;;;;4.40;4.10;;;;;25.50;99975.00;;;;2070150;28;20241;-57
2021/06/17 03:59:40;;;;;;;3.53;3.33;;;;;25.50;99964.00;;;;2069506;28;20214;-59
2021/06/17 04:00:41;;;;;;;3.50;3.30;;;;;25.50;99971.00;;;;2079022;28;20221;-59
2021/06/17 04:01:41;;;;;;;3.77;3.57;;;;;25.50;99967.00;;;;2070554;28;20213;-58
2021/06/17 04:02:42;;;;;;;4.30;4.00;;;;;25.50;99967.00;;;;2066745;28;20219;-59
2021/06/17 04:03:42;;;;;;;4.00;3.80;;;;;25.50;99958.00;;;;2079129;28;20656;-58
2021/06/17 04:04:43;;;;;;;4.03;3.83;;;;;25.50;99965.00;;;;2070936;28;20316;-58
2021/06/17 04:05:43;;;;;;;4.32;4.03;;;;;25.50;99969.00;;;;2070203;28;20218;-58
2021/06/17 04:06:50;;;;;;;3.43;3.23;;;;;25.50;99967.00;;;;2071064;28;20235;-58
2021/06/17 04:07:53;;;;;;;4.15;3.85;;;;;25.50;99967.00;;;;2062305;28;20243;-58
2021/06/17 04:08:53;;;;;;;3.65;3.45;;;;;25.50;99964.00;;;;2062707;28;20211;-59
2021/06/17 04:09:54;;;;;;;4.03;3.83;;;;;25.50;99963.00;;;;2074648;28;20563;-58
2021/06/17 04:10:59;;;;;;;3.67;3.47;;;;;25.50;99964.00;;;;2062480;28;20207;-59
2021/06/17 04:12:02;;;;;;;3.72;3.53;;;;;25.50;99962.00;;;;2070776;28;20207;-58
2021/06/17 04:13:02;;;;;;;3.60;3.35;;;;;25.50;99962.00;;;;2077171;28;20678;-59
2021/06/17 04:14:02;;;;;;;3.80;3.60;;;;;25.50;99968.00;;;;2070115;28;20214;-59
2021/06/17 04:15:03;;;;;;;4.03;3.83;;;;;25.50;99964.00;;;;2070144;28;20206;-59
2021/06/17 04:16:04;;;;;;;4.43;4.13;;;;;25.50;99967.00;;;;2069900;28;20240;-58
2021/06/17 04:17:05;;;;;;;3.97;3.77;;;;;25.50;99958.00;;;;2070134;28;20690;-58
2021/06/17 04:18:05;;;;;;;4.53;4.23;;;;;25.50;99966.00;;;;2077469;28;20285;-59
2021/06/17 04:19:05;;;;;;;4.13;3.93;;;;;25.50;99970.00;;;;2078016;28;20209;-58
2021/06/17 04:20:08;;;;;;;4.23;3.93;;;;;25.50;99970.00;;;;2078223;28;20694;-58
2021/06/17 04:21:09;;;;;;;4.18;3.90;;;;;25.50;99969.00;;;;2069468;28;20234;-57
2021/06/17 04:22:09;;;;;;;4.07;3.83;;;;;25.50;99964.00;;;;2070062;28;20233;-58
2021/06/17 04:23:11;;;;;;;3.80;3.60;;;;;25.50;99960.00;;;;2078186;28;20279;-58
2021/06/17 04:24:11;;;;;;;3.75;3.55;;;;;25.50;99964.00;;;;2077796;28;20239;-58
2021/06/17 04:25:12;;;;;;;4.07;3.77;;;;;25.50;99968.00;;;;2070260;28;20301;-58
2021/06/17 04:26:12;;;;;;;3.83;3.63;;;;;25.50;99973.00;;;;2086340;28;20689;-58
2021/06/17 04:27:13;;;;;;;4.03;3.73;;;;;25.50;99964.00;;;;2078295;28;20229;-57
2021/06/17 04:28:13;;;;;;;3.60;3.40;;;;;25.50;99974.00;;;;2061468;28;20215;-60
2021/06/17 04:29:15;;;;;;;3.60;3.40;;;;;25.50;99974.00;;;;2086610;28;20205;-57
2021/06/17 04:30:17;;;;;;;3.95;3.65;;;;;25.50;99977.00;;;;2094681;28;20216;-58
2021/06/17 04:31:17;;;;;;;4.28;3.97;;;;;25.50;99970.00;;;;2077478;28;20228;-58
2021/06/17 04:32:18;;;;;;;3.97;3.67;;;;;25.50;99970.00;;;;2076691;28;20221;-58
2021/06/17 04:33:20;;;;;;;3.93;3.67;;;;;25.50;99973.00;;;;2072218;28;20264;-59
2021/06/17 04:34:21;;;;;;;4.30;4.00;;;;;25.50;99966.00;;;;2073999;28;20225;-59
2021/06/17 04:35:21;;;;;;;3.80;3.50;;;;;25.50;99968.00;;;;2071073;28;20214;-58
2021/06/17 04:36:22;;;;;;;3.90;3.70;;;;;25.50;99962.00;;;;2086864;28;20521;-59
2021/06/17 04:37:24;;;;;;;4.10;3.80;;;;;25.50;99959.00;;;;2078645;28;20209;-58
2021/06/17 04:38:24;;;;;;;3.70;3.50;;;;;25.50;99966.00;;;;2070573;28;20895;-58
2021/06/17 04:39:27;;;;;;;3.73;3.53;;;;;25.50;99957.00;;;;2062123;28;20226;-57
2021/06/17 04:40:27;;;;;;;4.00;3.70;;;;;25.50;99968.00;;;;2082489;28;20239;-59
2021/06/17 04:41:28;;;;;;;3.70;3.50;;;;;25.50;99968.00;;;;2093891;28;20212;-58
2021/06/17 04:42:28;;;;;;;3.93;3.73;;;;;25.50;99974.00;;;;2078418;28;20345;-58
2021/06/17 04:43:32;;;;;;;3.80;3.60;;;;;25.50;99968.00;;;;2077982;28;20221;-59
2021/06/17 04:44:32;;;;;;;4.10;3.80;;;;;25.50;99962.00;;;;2079098;28;20240;-58
2021/06/17 04:45:32;;;;;;;4.10;3.80;;;;;25.50;99965.00;;;;2078643;28;20221;-58
2021/06/17 04:46:33;;;;;;;3.60;3.40;;;;;25.50;99965.00;;;;2070133;28;20245;-58
2021/06/17 04:47:34;;;;;;;3.83;3.63;;;;;25.60;99967.00;;;;2071197;28;20283;-59
2021/06/17 04:48:35;;;;;;;3.63;3.43;;;;;25.60;99962.00;;;;2076927;28;20695;-57
2021/06/17 04:49:35;;;;;;;4.30;4.00;;;;;25.60;99967.00;;;;2069096;28;20460;-57
2021/06/17 04:50:36;;;;;;;3.80;3.60;;;;;25.60;99966.00;;;;2078616;28;20244;-58
2021/06/17 04:51:37;;;;;;;3.90;3.70;;;;;25.60;99970.00;;;;2077956;28;20713;-58
2021/06/17 04:53:07;;;;;;;3.70;3.50;;;;;25.50;99969.00;;;;2078333;28;20299;-58
2021/06/17 04:54:08;;;;;;;3.95;3.75;;;;;25.60;99968.00;;;;2071986;28;20222;-58
2021/06/17 04:55:09;;;;;;;3.35;3.15;;;;;25.50;99960.00;;;;2071074;28;20210;-58
2021/06/17 04:56:10;;;;;;;3.70;3.50;;;;;25.60;99957.00;;;;2070791;28;20264;-57
2021/06/17 04:57:10;;;;;;;4.50;4.20;;;;;25.60;99967.00;;;;2070832;28;20552;-59
2021/06/17 04:58:10;;;;;;;4.10;3.80;;;;;25.60;99968.00;;;;2071156;28;20245;-58
2021/06/17 04:59:11;;;;;;;3.70;3.50;;;;;25.60;99968.00;;;;2070991;28;20293;-58
2021/06/17 05:00:12;;;;;;;3.57;3.37;;;;;25.60;99968.00;;;;2071051;28;20210;-57
2021/06/17 05:01:12;;;;;;;3.70;3.50;;;;;25.60;99968.00;;;;2070473;28;20261;-58
2021/06/17 05:02:13;;;;;;;3.60;3.40;;;;;25.60;99979.00;;;;2072146;28;21093;-58
2021/06/17 05:03:13;;;;;;;3.43;3.23;;;;;25.60;99965.00;;;;2073567;28;20568;-57
2021/06/17 05:04:17;;;;;;;3.80;3.50;;;;;25.60;99964.00;;;;2073107;28;20884;-57
2021/06/17 05:05:17;;;;;;;4.03;3.72;;;;;25.60;99965.00;;;;2067340;28;20217;-58
2021/06/17 05:06:19;;;;;;;4.20;3.90;;;;;25.60;99963.00;;;;2071014;28;20671;-58
2021/06/17 05:10:48;;;;;;;3.70;3.50;;;;;25.60;99957.00;;;;2070108;28;20230;-58
2021/06/17 05:11:52;;;;;;;3.85;3.65;;;;;25.60;99962.00;;;;2069586;28;20222;-57
2021/06/17 05:12:52;;;;;;;4.10;3.90;;;;;25.60;99966.00;;;;2070741;28;20575;-57
2021/06/17 05:13:52;;;;;;;4.30;4.00;;;;;25.60;99975.00;;;;2070904;28;20220;-59
2021/06/17 05:14:53;;;;;;;3.50;3.30;;;;;25.60;99968.00;;;;2070941;28;20685;-59